createdAt,value
2018-07-22T00:00:16.548Z,31.17
2018-07-22T00:02:43.733Z,31.97
2018-07-22T00:05:10.927Z,30.85
2018-07-22T00:07:38.583Z,29.98
2018-07-22T00:10:06.729Z,30.60
2018-07-22T00:12:33.931Z,32.25
2018-07-22T00:15:01.115Z,31.57
2018-07-22T00:17:28.312Z,30.95
2018-07-22T00:19:55.653Z,34.00
2018-07-22T00:22:22.794Z,34.23
2018-07-22T00:24:50.014Z,35.03
2018-07-22T00:27:17.185Z,36.80
2018-07-22T00:29:44.390Z,34.58
2018-07-22T00:32:11.665Z,37.05
2018-07-22T00:34:38.842Z,36.23
2018-07-22T00:37:06.059Z,36.50
2018-07-22T00:39:33.234Z,37.75
2018-07-22T00:42:00.425Z,34.55
2018-07-22T00:44:27.606Z,35.68
2018-07-22T00:46:54.785Z,37.53
2018-07-22T00:49:21.977Z,39.15
2018-07-22T00:51:49.156Z,36.98
2018-07-22T00:54:16.348Z,37.98
2018-07-22T00:56:43.520Z,38.75
2018-07-22T00:59:10.693Z,38.42
2018-07-22T01:01:37.956Z,39.78
2018-07-22T01:04:05.138Z,40.45
2018-07-22T01:06:32.333Z,37.17
2018-07-22T01:08:59.497Z,39.83
2018-07-22T01:11:26.681Z,37.20
2018-07-22T01:13:54.077Z,40.48
2018-07-22T01:16:21.253Z,39.15
2018-07-22T01:18:48.464Z,35.95
2018-07-22T01:21:15.658Z,38.45
2018-07-22T01:23:42.843Z,37.98
2018-07-22T01:26:10.036Z,35.65
2018-07-22T01:28:37.241Z,38.05
2018-07-22T01:31:04.528Z,34.10
2018-07-22T01:33:31.776Z,35.92
2018-07-22T01:35:58.963Z,36.58
2018-07-22T01:38:26.190Z,35.55
2018-07-22T01:40:53.372Z,36.53
2018-07-22T01:43:20.604Z,36.48
2018-07-22T01:45:47.748Z,34.05
2018-07-22T01:48:14.932Z,33.38
2018-07-22T01:50:42.117Z,29.80
2018-07-22T01:53:09.493Z,29.75
2018-07-22T01:55:36.699Z,32.08
2018-07-22T01:58:03.873Z,31.73
2018-07-22T02:00:31.058Z,27.65
2018-07-22T02:02:59.845Z,31.12
2018-07-22T02:05:27.288Z,29.05
2018-07-22T02:07:54.493Z,33.05
2018-07-22T02:10:21.664Z,32.20
2018-07-22T02:12:48.826Z,31.55
2018-07-22T02:15:16.018Z,32.93
2018-07-22T02:17:43.209Z,33.28
2018-07-22T02:20:10.399Z,32.78
2018-07-22T02:22:37.571Z,31.50
2018-07-22T02:25:04.883Z,35.75
2018-07-22T02:27:32.086Z,36.10
2018-07-22T02:29:59.269Z,34.20
2018-07-22T02:32:26.470Z,34.00
2018-07-22T02:34:53.642Z,34.80
2018-07-22T02:37:20.842Z,36.40
2018-07-22T02:39:48.017Z,36.35
2018-07-22T02:42:15.181Z,35.45
2018-07-22T02:44:42.373Z,32.20
2018-07-22T02:47:09.854Z,34.90
2018-07-22T02:49:37.037Z,31.82
2018-07-22T02:52:04.232Z,32.28
2018-07-22T02:54:31.404Z,33.50
2018-07-22T02:56:58.589Z,36.73
2018-07-22T02:59:25.759Z,35.00
2018-07-22T03:01:52.930Z,33.20
2018-07-22T03:04:20.165Z,34.27
2018-07-22T03:06:47.412Z,33.73
2018-07-22T03:09:14.605Z,32.45
2018-07-22T03:11:41.788Z,34.88
2018-07-22T03:14:09.002Z,33.67
2018-07-22T03:16:36.225Z,37.10
2018-07-22T03:19:04.533Z,34.48
2018-07-22T03:21:31.744Z,34.50
2018-07-22T03:23:58.941Z,34.98
2018-07-22T03:26:26.392Z,34.27
2018-07-22T03:28:53.760Z,36.85
2018-07-22T03:31:20.932Z,38.25
2018-07-22T03:33:48.115Z,33.42
2018-07-22T03:36:15.313Z,41.30
2018-07-22T03:38:42.485Z,35.23
2018-07-22T03:41:09.698Z,35.28
2018-07-22T03:43:36.896Z,36.40
2018-07-22T03:46:04.082Z,33.63
2018-07-22T03:48:31.258Z,35.55
2018-07-22T03:50:58.455Z,36.00
2018-07-22T03:53:25.644Z,37.15
2018-07-22T03:55:52.817Z,33.50
2018-07-22T03:58:20.126Z,29.57
2018-07-22T04:00:47.308Z,28.73
2018-07-22T04:03:14.506Z,29.90
2018-07-22T04:05:41.692Z,29.27
2018-07-22T04:08:08.865Z,29.63
2018-07-22T04:10:36.057Z,31.42
2018-07-22T04:13:03.242Z,30.52
2018-07-22T04:15:30.422Z,32.05
2018-07-22T04:17:57.619Z,30.12
2018-07-22T04:20:24.813Z,33.78
2018-07-22T04:22:52.000Z,30.08
2018-07-22T04:25:19.196Z,30.05
2018-07-22T04:27:46.372Z,26.37
2018-07-22T04:30:13.556Z,28.07
2018-07-22T04:32:40.741Z,26.07
2018-07-22T04:35:07.915Z,25.65
2018-07-22T04:37:35.122Z,25.65
2018-07-22T04:40:02.407Z,25.50
2018-07-22T04:42:29.601Z,24.00
2018-07-22T04:44:56.777Z,22.77
2018-07-22T04:47:23.968Z,23.05
2018-07-22T04:49:51.148Z,25.10
2018-07-22T04:52:18.335Z,25.37
2018-07-22T04:54:45.534Z,24.70
2018-07-22T04:57:12.774Z,23.10
2018-07-22T04:59:39.997Z,21.77
2018-07-22T05:02:07.203Z,23.10
2018-07-22T05:04:34.384Z,24.63
2018-07-22T05:07:01.578Z,24.18
2018-07-22T05:09:28.758Z,20.82
2018-07-22T05:11:56.049Z,22.85
2018-07-22T05:14:23.219Z,25.95
2018-07-22T05:16:50.397Z,28.27
2018-07-22T05:19:17.572Z,26.70
2018-07-22T05:21:44.757Z,26.10
2018-07-22T05:24:11.948Z,27.62
2018-07-22T05:26:39.127Z,28.10
2018-07-22T05:29:06.310Z,29.63
2018-07-22T05:31:33.522Z,30.55
2018-07-22T05:34:00.713Z,29.63
2018-07-22T05:36:27.912Z,30.02
2018-07-22T05:38:55.073Z,31.40
2018-07-22T05:41:22.245Z,26.85
2018-07-22T05:43:49.452Z,28.25
2018-07-22T05:46:16.737Z,27.73
2018-07-22T05:48:43.930Z,27.90
2018-07-22T05:51:11.134Z,29.70
2018-07-22T05:53:38.322Z,29.35
2018-07-22T05:56:05.592Z,25.30
2018-07-22T05:58:32.785Z,26.75
2018-07-22T06:00:59.992Z,25.48
2018-07-22T06:03:27.169Z,25.43
2018-07-22T06:05:54.350Z,23.15
2018-07-22T06:08:21.564Z,22.87
2018-07-22T06:10:48.729Z,25.32
2018-07-22T06:13:15.923Z,24.43
2018-07-22T06:15:43.100Z,24.77
2018-07-22T06:18:10.301Z,23.95
2018-07-22T06:20:37.508Z,26.80
2018-07-22T06:23:04.843Z,23.90
2018-07-22T06:25:32.078Z,22.77
2018-07-22T06:27:59.252Z,18.62
2018-07-22T06:30:26.437Z,21.85
2018-07-22T06:32:53.633Z,21.62
2018-07-22T06:35:20.820Z,22.87
2018-07-22T06:37:48.008Z,22.20
2018-07-22T06:40:15.188Z,24.25
2018-07-22T06:42:42.395Z,24.92
2018-07-22T06:45:09.600Z,22.70
2018-07-22T06:47:36.798Z,21.62
2018-07-22T06:50:04.440Z,22.93
2018-07-22T06:52:31.606Z,22.00
2018-07-22T06:54:58.801Z,23.90
2018-07-22T06:57:25.981Z,22.50
2018-07-22T06:59:53.154Z,24.65
2018-07-22T07:02:20.489Z,21.27
2018-07-22T07:04:47.684Z,21.85
2018-07-22T07:07:15.090Z,22.48
2018-07-22T07:09:42.293Z,20.25
2018-07-22T07:12:09.475Z,20.92
2018-07-22T07:14:36.661Z,35.40
2018-07-22T07:17:03.968Z,19.35
2018-07-22T07:19:31.156Z,19.82
2018-07-22T07:21:58.344Z,23.60
2018-07-22T07:24:25.542Z,22.87
2018-07-22T07:26:52.730Z,20.70
2018-07-22T07:29:20.284Z,19.98
2018-07-22T07:31:47.681Z,24.07
2018-07-22T07:34:14.902Z,20.23
2018-07-22T07:36:42.085Z,23.45
2018-07-22T07:39:10.811Z,18.85
2018-07-22T07:41:38.009Z,20.77
2018-07-22T07:44:20.035Z,19.85
2018-07-22T07:46:47.237Z,20.62
2018-07-22T07:49:14.416Z,19.27
2018-07-22T07:51:41.712Z,20.55
2018-07-22T07:54:08.931Z,19.73
2018-07-22T07:56:36.117Z,20.17
2018-07-22T07:59:03.351Z,19.02
2018-07-22T08:01:30.519Z,20.95
2018-07-22T08:03:57.697Z,20.05
2018-07-22T08:06:24.885Z,19.50
2018-07-22T08:08:52.070Z,18.00
2018-07-22T08:11:19.273Z,18.85
2018-07-22T08:13:46.488Z,18.50
2018-07-22T08:16:13.691Z,19.45
2018-07-22T08:18:40.907Z,19.35
2018-07-22T08:21:08.077Z,20.05
2018-07-22T08:23:35.299Z,17.92
2018-07-22T08:26:02.512Z,14.53
2018-07-22T08:28:35.319Z,17.90
2018-07-22T08:31:02.515Z,15.98
2018-07-22T08:33:29.823Z,18.05
2018-07-22T08:35:57.023Z,16.93
2018-07-22T08:38:24.413Z,16.90
2018-07-22T08:40:51.612Z,16.95
2018-07-22T08:43:18.807Z,14.85
2018-07-22T08:45:45.993Z,17.60
2018-07-22T08:48:13.197Z,18.30
2018-07-22T08:50:40.397Z,17.85
2018-07-22T08:53:07.618Z,19.65
2018-07-22T08:55:34.824Z,16.95
2018-07-22T08:58:02.013Z,18.23
2018-07-22T09:00:29.221Z,17.98
2018-07-22T09:02:56.412Z,17.62
2018-07-22T09:05:23.668Z,18.62
2018-07-22T09:07:50.832Z,16.80
2018-07-22T09:10:19.033Z,17.85
2018-07-22T09:12:46.317Z,17.32
2018-07-22T09:15:19.864Z,18.23
2018-07-22T09:17:47.119Z,17.52
2018-07-22T09:20:14.301Z,17.50
2018-07-22T09:22:41.505Z,18.23
2018-07-22T09:25:08.724Z,18.05
2018-07-22T09:27:35.924Z,16.85
2018-07-22T09:30:03.143Z,18.30
2018-07-22T09:32:30.342Z,19.40
2018-07-22T09:34:57.542Z,19.73
2018-07-22T09:37:24.739Z,18.85
2018-07-22T09:39:51.929Z,16.60
2018-07-22T09:42:19.134Z,17.70
2018-07-22T09:44:46.329Z,18.80
2018-07-22T09:47:13.532Z,26.10
2018-07-22T09:49:40.737Z,16.60
2018-07-22T09:52:08.905Z,19.27
2018-07-22T09:54:36.096Z,17.82
2018-07-22T09:57:03.297Z,20.08
2018-07-22T09:59:30.560Z,20.40
2018-07-22T10:01:58.537Z,19.10
2018-07-22T10:04:25.785Z,20.27
2018-07-22T10:06:52.940Z,21.60
2018-07-22T10:09:20.132Z,20.40
2018-07-22T10:11:47.314Z,20.88
2018-07-22T10:14:14.520Z,21.12
2018-07-22T10:16:41.725Z,21.33
2018-07-22T10:19:08.901Z,18.75
2018-07-22T10:21:36.072Z,20.97
2018-07-22T10:24:03.289Z,17.25
2018-07-22T10:26:30.473Z,18.23
2018-07-22T10:28:57.677Z,52.93
2018-07-22T10:31:25.049Z,24.45
2018-07-22T10:33:52.865Z,17.80
2018-07-22T10:36:20.133Z,30.80
2018-07-22T10:38:47.429Z,21.52
2018-07-22T10:41:14.629Z,38.58
2018-07-22T10:43:41.837Z,17.92
2018-07-22T10:46:09.041Z,23.10
2018-07-22T10:48:36.579Z,30.65
2018-07-22T10:51:03.819Z,26.02
2018-07-22T10:53:31.001Z,25.45
2018-07-22T10:55:58.205Z,31.00
2018-07-22T10:58:25.400Z,19.25
2018-07-22T11:00:53.180Z,24.15
2018-07-22T11:03:20.471Z,24.75
2018-07-22T11:05:47.618Z,18.25
2018-07-22T11:08:14.821Z,17.87
2018-07-22T11:10:42.060Z,18.17
2018-07-22T11:13:09.292Z,21.15
2018-07-22T11:15:36.490Z,33.20
2018-07-22T11:18:03.677Z,15.65
2018-07-22T11:20:30.906Z,19.32
2018-07-22T11:22:58.093Z,21.90
2018-07-22T11:25:25.344Z,33.85
2018-07-22T11:27:52.557Z,16.48
2018-07-22T11:30:19.747Z,17.10
2018-07-22T11:32:46.950Z,29.48
2018-07-22T11:35:14.620Z,18.37
2018-07-22T11:37:41.835Z,32.98
2018-07-22T11:40:09.036Z,31.45
2018-07-22T11:42:36.233Z,32.83
2018-07-22T11:45:03.525Z,28.45
2018-07-22T11:47:30.743Z,29.72
2018-07-22T11:49:57.945Z,17.40
2018-07-22T11:52:25.129Z,53.20
2018-07-22T11:54:52.332Z,20.17
2018-07-22T11:57:19.530Z,55.70
2018-07-22T11:59:46.740Z,24.32
2018-07-22T12:02:13.929Z,24.15
2018-07-22T12:04:41.116Z,14.23
2018-07-22T12:07:08.316Z,24.57
2018-07-22T12:09:35.512Z,19.25
2018-07-22T12:12:02.732Z,18.95
2018-07-22T12:14:29.930Z,16.42
2018-07-22T12:16:57.267Z,25.08
2018-07-22T12:19:24.469Z,20.40
2018-07-22T12:21:51.678Z,20.37
2018-07-22T12:24:18.857Z,22.02
2018-07-22T12:26:46.058Z,17.02
2018-07-22T12:29:13.307Z,15.03
2018-07-22T12:31:40.455Z,20.23
2018-07-22T12:34:07.657Z,17.27
2018-07-22T12:36:35.136Z,27.05
2018-07-22T12:39:02.374Z,19.60
2018-07-22T12:41:29.593Z,26.65
2018-07-22T12:43:56.793Z,15.68
2018-07-22T12:46:24.013Z,42.80
2018-07-22T12:48:51.209Z,15.58
2018-07-22T12:51:18.397Z,17.57
2018-07-22T12:53:45.597Z,17.87
2018-07-22T12:56:13.738Z,91.10
2018-07-22T12:58:40.939Z,16.35
2018-07-22T13:01:08.160Z,21.30
2018-07-22T13:03:35.398Z,14.93
2018-07-22T13:06:02.622Z,17.82
2018-07-22T13:08:29.827Z,13.83
2018-07-22T13:10:57.140Z,14.58
2018-07-22T13:13:24.354Z,19.10
2018-07-22T13:15:51.558Z,30.45
2018-07-22T13:18:18.750Z,13.80
2018-07-22T13:20:45.953Z,13.93
2018-07-22T13:23:13.176Z,16.97
2018-07-22T13:25:40.385Z,15.43
2018-07-22T13:28:07.761Z,14.30
2018-07-22T13:30:34.968Z,12.97
2018-07-22T13:33:02.144Z,12.40
2018-07-22T13:35:29.346Z,13.07
2018-07-22T13:37:56.539Z,12.90
2018-07-22T13:40:23.721Z,12.67
2018-07-22T13:42:50.921Z,14.07
2018-07-22T13:45:18.196Z,15.40
2018-07-22T13:47:45.421Z,14.70
2018-07-22T13:50:12.605Z,14.03
2018-07-22T13:52:39.798Z,13.17
2018-07-22T13:55:06.996Z,13.87
2018-07-22T13:57:34.216Z,15.10
2018-07-22T14:00:01.423Z,13.97
2018-07-22T14:02:28.701Z,15.43
2018-07-22T14:04:55.869Z,13.97
2018-07-22T14:07:23.103Z,11.17
2018-07-22T14:09:50.269Z,13.23
2018-07-22T14:12:17.505Z,13.83
2018-07-22T14:14:44.693Z,13.27
2018-07-22T14:17:11.898Z,13.77
2018-07-22T14:19:39.086Z,13.87
2018-07-22T14:22:06.303Z,12.77
2018-07-22T14:24:33.477Z,13.33
2018-07-22T14:27:00.672Z,14.40
2018-07-22T14:32:01.664Z,13.63
2018-07-22T14:34:28.870Z,13.43
2018-07-22T14:36:56.184Z,12.03
2018-07-22T14:39:23.380Z,13.87
2018-07-22T14:41:50.608Z,10.17
2018-07-22T14:44:24.487Z,14.03
2018-07-22T14:46:51.727Z,13.37
2018-07-22T14:49:18.939Z,10.60
2018-07-22T14:51:46.193Z,13.00
2018-07-22T14:54:13.450Z,13.93
2018-07-22T14:56:40.783Z,11.17
2018-07-22T14:59:08.345Z,13.70
2018-07-22T15:01:35.511Z,14.23
2018-07-22T15:04:02.696Z,12.90
2018-07-22T15:06:29.937Z,13.22
2018-07-22T15:08:57.124Z,14.83
2018-07-22T15:11:24.349Z,14.53
2018-07-22T15:13:51.636Z,15.08
2018-07-22T15:16:18.844Z,15.45
2018-07-22T15:18:46.077Z,14.30
2018-07-22T15:21:13.373Z,14.68
2018-07-22T15:23:40.588Z,16.45
2018-07-22T15:26:07.810Z,14.78
2018-07-22T15:28:35.003Z,15.95
2018-07-22T15:31:02.279Z,14.23
2018-07-22T15:33:29.497Z,12.78
2018-07-22T15:35:56.709Z,13.48
2018-07-22T15:38:23.911Z,15.60
2018-07-22T15:40:51.109Z,13.38
2018-07-22T15:43:18.301Z,12.05
2018-07-22T15:45:45.521Z,15.50
2018-07-22T15:48:12.719Z,14.45
2018-07-22T15:50:39.913Z,14.00
2018-07-22T15:53:07.117Z,12.90
2018-07-22T15:55:34.591Z,13.30
2018-07-22T15:58:01.549Z,13.33
2018-07-22T16:00:28.772Z,13.80
2018-07-22T16:02:55.962Z,14.93
2018-07-22T16:05:23.159Z,14.73
2018-07-22T16:07:50.373Z,13.95
2018-07-22T16:10:17.845Z,14.35
2018-07-22T16:12:45.412Z,15.03
2018-07-22T16:15:12.757Z,14.35
2018-07-22T16:17:39.967Z,15.00
2018-07-22T16:20:07.182Z,14.95
2018-07-22T16:22:34.469Z,12.82
2018-07-22T16:25:01.705Z,12.88
2018-07-22T16:27:28.922Z,14.23
2018-07-22T16:29:56.132Z,13.75
2018-07-22T16:32:23.341Z,14.00
2018-07-22T16:34:50.558Z,15.23
2018-07-22T16:37:17.781Z,13.93
2018-07-22T16:39:45.018Z,13.88
2018-07-22T16:42:12.281Z,13.30
2018-07-22T16:44:39.475Z,13.58
2018-07-22T16:47:06.826Z,15.32
2018-07-22T16:49:34.071Z,12.73
2018-07-22T16:52:01.264Z,12.55
2018-07-22T16:54:28.473Z,12.68
2018-07-22T16:56:55.749Z,14.95
2018-07-22T16:59:22.939Z,16.30
2018-07-22T17:01:50.195Z,14.80
2018-07-22T17:04:17.381Z,28.52
2018-07-22T17:06:44.586Z,16.45
2018-07-22T17:09:11.896Z,15.35
2018-07-22T17:11:39.094Z,17.70
2018-07-22T17:14:06.301Z,15.98
2018-07-22T17:16:33.519Z,15.35
2018-07-22T17:19:00.718Z,17.90
2018-07-22T17:21:27.912Z,17.40
2018-07-22T17:23:55.209Z,17.25
2018-07-22T17:26:22.442Z,15.50
2018-07-22T17:28:49.662Z,16.37
2018-07-22T17:31:17.284Z,17.10
2018-07-22T17:33:44.421Z,17.40
2018-07-22T17:36:11.654Z,16.05
2018-07-22T17:38:38.843Z,15.35
2018-07-22T17:41:06.272Z,15.78
2018-07-22T17:43:33.455Z,17.67
2018-07-22T17:46:00.707Z,18.27
2018-07-22T17:48:27.884Z,20.23
2018-07-22T17:50:55.165Z,16.95
2018-07-22T17:53:22.317Z,18.60
2018-07-22T17:55:49.501Z,17.73
2018-07-22T17:58:16.714Z,18.42
2018-07-22T18:00:43.909Z,16.80
2018-07-22T18:03:20.096Z,17.17
2018-07-22T18:05:47.280Z,18.45
2018-07-22T18:08:14.469Z,16.05
2018-07-22T18:10:41.673Z,17.95
2018-07-22T18:13:08.870Z,18.92
2018-07-22T18:15:36.067Z,18.62
2018-07-22T18:18:03.270Z,20.23
2018-07-22T18:20:30.472Z,18.77
2018-07-22T18:22:57.737Z,17.30
2018-07-22T18:25:24.909Z,19.70
2018-07-22T18:27:52.277Z,20.00
2018-07-22T18:30:19.473Z,17.70
2018-07-22T18:32:46.676Z,20.95
2018-07-22T18:35:13.929Z,19.52
2018-07-22T18:37:41.120Z,19.65
2018-07-22T18:40:08.337Z,19.35
2018-07-22T18:42:35.579Z,19.67
2018-07-22T18:45:02.781Z,17.73
2018-07-22T18:47:29.982Z,17.82
2018-07-22T18:49:57.178Z,19.82
2018-07-22T18:52:24.381Z,17.82
2018-07-22T18:54:51.618Z,17.52
2018-07-22T18:57:18.889Z,19.52
2018-07-22T18:59:46.234Z,20.40
2018-07-22T19:02:13.420Z,19.07
2018-07-22T19:04:40.955Z,20.40
2018-07-22T19:07:08.156Z,21.80
2018-07-22T19:09:35.418Z,20.27
2018-07-22T19:12:02.643Z,22.42
2018-07-22T19:14:29.837Z,21.25
2018-07-22T19:16:57.182Z,19.02
2018-07-22T19:19:24.775Z,20.08
2018-07-22T19:21:51.972Z,20.05
2018-07-22T19:24:19.189Z,20.15
2018-07-22T19:26:46.368Z,20.95
2018-07-22T19:29:13.586Z,22.40
2018-07-22T19:31:40.797Z,21.05
2018-07-22T19:34:08.001Z,23.20
2018-07-22T19:36:35.236Z,22.22
2018-07-22T19:39:02.429Z,21.90
2018-07-22T19:41:29.628Z,26.23
2018-07-22T19:43:56.817Z,55.17
2018-07-22T19:46:24.064Z,20.10
2018-07-22T19:48:51.213Z,21.02
2018-07-22T19:51:18.533Z,22.65
2018-07-22T19:53:45.747Z,21.80
2018-07-22T19:56:12.990Z,22.80
2018-07-22T19:58:40.188Z,22.85
2018-07-22T20:01:07.386Z,23.67
2018-07-22T20:03:34.563Z,25.65
2018-07-22T20:06:01.742Z,21.75
2018-07-22T20:08:28.943Z,21.42
2018-07-22T20:10:56.135Z,23.18
2018-07-22T20:13:23.391Z,20.20
2018-07-22T20:15:50.608Z,20.00
2018-07-22T20:18:17.814Z,20.85
2018-07-22T20:20:44.989Z,20.12
2018-07-22T20:23:12.186Z,21.27
2018-07-22T20:25:39.386Z,22.30
2018-07-22T20:28:06.571Z,25.15
2018-07-22T20:30:33.800Z,28.62
2018-07-22T20:33:01.023Z,26.02
2018-07-22T20:35:28.213Z,21.40
2018-07-22T20:37:55.412Z,22.40
2018-07-22T20:40:22.905Z,22.80
2018-07-22T20:42:50.086Z,23.02
2018-07-22T20:45:17.307Z,23.52
2018-07-22T20:47:44.471Z,21.97
2018-07-22T20:50:11.665Z,23.20
2018-07-22T20:52:38.844Z,23.20
2018-07-22T20:55:06.053Z,21.75
2018-07-22T20:57:33.253Z,25.62
2018-07-22T21:00:00.438Z,24.10
2018-07-22T21:02:27.646Z,23.15
2018-07-22T21:04:54.834Z,28.20
2018-07-22T21:07:22.008Z,21.48
2018-07-22T21:09:49.205Z,23.77
2018-07-22T21:12:48.723Z,24.60
2018-07-22T21:15:16.468Z,24.95
2018-07-22T21:17:44.935Z,25.37
2018-07-22T21:20:12.132Z,27.73
2018-07-22T21:22:39.520Z,25.82
2018-07-22T21:25:06.705Z,26.02
2018-07-22T21:27:34.154Z,24.70
2018-07-22T21:30:01.407Z,24.77
2018-07-22T21:32:28.550Z,24.72
2018-07-22T21:34:55.772Z,24.52
2018-07-22T21:37:22.945Z,23.57
2018-07-22T21:39:50.741Z,24.95
2018-07-22T21:42:17.950Z,24.47
2018-07-22T21:44:45.135Z,23.92
2018-07-22T21:47:12.748Z,24.30
2018-07-22T21:49:39.929Z,23.77
2018-07-22T21:52:07.417Z,23.38
2018-07-22T21:54:34.605Z,25.02
2018-07-22T21:57:01.853Z,23.18
2018-07-22T21:59:29.220Z,24.90
2018-07-22T22:01:56.491Z,26.05
2018-07-22T22:04:23.682Z,26.62
2018-07-22T22:06:50.890Z,24.40
2018-07-22T22:09:18.069Z,24.60
2018-07-22T22:11:45.252Z,24.40
2018-07-22T22:14:12.513Z,24.45
2018-07-22T22:16:39.705Z,24.95
2018-07-22T22:19:06.884Z,25.82
2018-07-22T22:21:34.062Z,23.62
2018-07-22T22:24:01.271Z,24.75
2018-07-22T22:26:28.466Z,26.07
2018-07-22T22:28:55.670Z,24.75
2018-07-22T22:31:22.888Z,24.72
2018-07-22T22:33:50.090Z,24.82
2018-07-22T22:36:17.304Z,25.82
2018-07-22T22:38:44.494Z,26.62
2018-07-22T22:41:11.701Z,23.70
2018-07-22T22:43:38.892Z,38.88
2018-07-22T22:46:06.068Z,24.82
2018-07-22T22:48:33.277Z,24.65
2018-07-22T22:51:00.468Z,25.45
2018-07-22T22:53:27.671Z,24.55
2018-07-22T22:55:54.847Z,24.25
2018-07-22T22:58:27.579Z,24.98
2018-07-22T23:00:54.757Z,26.30
2018-07-22T23:03:21.930Z,23.50
2018-07-22T23:05:49.140Z,26.02
2018-07-22T23:08:16.330Z,24.20
2018-07-22T23:10:43.522Z,24.45
2018-07-22T23:13:10.707Z,24.52
2018-07-22T23:15:37.886Z,22.80
2018-07-22T23:18:11.474Z,23.70
2018-07-22T23:20:38.677Z,23.73
2018-07-22T23:23:06.028Z,24.30
2018-07-22T23:25:33.217Z,24.27
2018-07-22T23:28:00.415Z,23.70
2018-07-22T23:30:27.609Z,25.62
2018-07-22T23:32:54.790Z,24.65
2018-07-22T23:35:21.981Z,22.73
2018-07-22T23:37:49.158Z,22.45
2018-07-22T23:40:16.447Z,24.30
2018-07-22T23:42:43.830Z,24.63
2018-07-22T23:45:11.016Z,22.58
2018-07-22T23:47:38.219Z,23.25
2018-07-22T23:50:05.693Z,24.05
2018-07-22T23:52:32.898Z,24.07
2018-07-22T23:55:00.092Z,26.27
2018-07-22T23:57:27.275Z,25.65
2018-07-22T23:59:54.605Z,26.33
